createdAt,value
2023-05-20T00:00:48.558Z,1.60
2023-05-20T00:03:17.003Z,1.60
2023-05-20T00:05:48.557Z,1.73
2023-05-20T00:08:20.541Z,1.73
2023-05-20T00:10:50.992Z,2.23
2023-05-20T00:13:19.188Z,1.63
2023-05-20T00:15:49.734Z,2.00
2023-05-20T00:18:18.053Z,1.60
2023-05-20T00:20:46.410Z,1.80
2023-05-20T00:23:15.145Z,2.00
2023-05-20T00:25:44.954Z,1.63
2023-05-20T00:28:16.376Z,1.93
2023-05-20T00:30:44.577Z,1.70
2023-05-20T00:33:13.320Z,1.53
2023-05-20T00:35:41.699Z,2.17
2023-05-20T00:38:09.839Z,1.80
2023-05-20T00:40:41.056Z,2.20
2023-05-20T00:43:11.220Z,2.00
2023-05-20T00:45:39.827Z,2.20
2023-05-20T00:48:09.746Z,1.90
2023-05-20T00:50:38.174Z,2.50
2023-05-20T00:53:07.398Z,2.13
2023-05-20T00:55:39.268Z,2.13
2023-05-20T00:58:07.681Z,1.97
2023-05-20T01:00:37.268Z,2.13
2023-05-20T01:03:05.928Z,2.10
2023-05-20T01:05:34.359Z,2.13
2023-05-20T01:08:05.327Z,1.70
2023-05-20T01:10:35.181Z,2.53
2023-05-20T01:13:06.796Z,1.77
2023-05-20T01:15:43.153Z,2.27
2023-05-20T01:18:12.379Z,2.00
2023-05-20T01:20:40.909Z,1.90
2023-05-20T01:23:10.657Z,2.20
2023-05-20T01:25:43.420Z,2.27
2023-05-20T01:28:18.166Z,1.93
2023-05-20T01:30:53.388Z,1.80
2023-05-20T01:33:26.623Z,2.03
2023-05-20T01:35:54.877Z,2.13
2023-05-20T01:38:26.030Z,1.90
2023-05-20T01:40:55.624Z,1.70
2023-05-20T01:43:27.707Z,1.73
2023-05-20T01:45:55.909Z,1.80
2023-05-20T01:48:24.082Z,2.00
2023-05-20T01:50:55.262Z,2.37
2023-05-20T01:53:24.793Z,2.03
2023-05-20T01:55:52.920Z,1.90
2023-05-20T01:58:21.344Z,1.73
2023-05-20T02:00:49.571Z,1.80
2023-05-20T02:03:18.059Z,2.00
2023-05-20T02:05:46.257Z,2.10
2023-05-20T02:08:14.528Z,1.60
2023-05-20T02:10:44.034Z,1.97
2023-05-20T02:13:13.864Z,1.80
2023-05-20T02:15:45.216Z,1.90
2023-05-20T02:18:14.019Z,1.80
2023-05-20T02:20:44.464Z,1.53
2023-05-20T02:23:12.641Z,2.13
2023-05-20T02:25:45.384Z,2.50
2023-05-20T02:28:13.693Z,2.17
2023-05-20T02:30:44.317Z,2.20
2023-05-20T02:33:12.536Z,1.97
2023-05-20T02:35:41.276Z,2.23
2023-05-20T02:38:12.578Z,1.93
2023-05-20T02:40:46.992Z,2.20
2023-05-20T02:43:15.169Z,1.83
2023-05-20T02:45:45.826Z,2.13
2023-05-20T02:48:14.990Z,1.83
2023-05-20T02:50:44.483Z,1.77
2023-05-20T02:53:12.659Z,2.03
2023-05-20T02:55:42.188Z,2.20
2023-05-20T02:58:13.383Z,1.40
2023-05-20T03:00:41.665Z,1.90
2023-05-20T03:03:13.675Z,1.90
2023-05-20T03:05:42.625Z,1.90
2023-05-20T03:08:13.602Z,2.00
2023-05-20T03:10:41.859Z,2.00
2023-05-20T03:13:15.221Z,2.10
2023-05-20T03:15:45.519Z,2.37
2023-05-20T03:18:14.441Z,1.70
2023-05-20T03:20:47.098Z,2.57
2023-05-20T03:23:15.220Z,1.63
2023-05-20T03:25:47.568Z,2.20
2023-05-20T03:28:17.114Z,1.80
2023-05-20T03:30:45.436Z,2.00
2023-05-20T03:33:18.103Z,1.87
2023-05-20T03:35:48.886Z,2.27
2023-05-20T03:38:17.699Z,2.07
2023-05-20T03:40:46.041Z,2.10
2023-05-20T03:43:14.253Z,2.00
2023-05-20T03:45:45.857Z,1.80
2023-05-20T03:48:16.596Z,1.90
2023-05-20T03:50:44.759Z,2.00
2023-05-20T03:53:13.049Z,2.00
2023-05-20T03:55:43.678Z,1.80
2023-05-20T03:58:15.411Z,1.90
2023-05-20T04:00:45.137Z,1.80
2023-05-20T04:03:13.738Z,1.93
2023-05-20T04:05:44.268Z,1.90
2023-05-20T04:08:18.934Z,1.80
2023-05-20T04:10:47.610Z,1.80
2023-05-20T04:13:15.946Z,1.80
2023-05-20T04:15:48.970Z,2.00
2023-05-20T04:18:17.127Z,1.70
2023-05-20T04:20:45.479Z,2.20
2023-05-20T04:23:15.262Z,1.50
2023-05-20T04:25:44.647Z,1.90
2023-05-20T04:28:16.390Z,1.70
2023-05-20T04:30:45.341Z,1.93
2023-05-20T04:33:18.508Z,1.50
2023-05-20T04:35:48.522Z,1.40
2023-05-20T04:38:19.276Z,1.67
2023-05-20T04:40:47.390Z,1.33
2023-05-20T04:43:18.025Z,1.73
2023-05-20T04:45:49.205Z,1.73
2023-05-20T04:48:22.383Z,1.70
2023-05-20T04:50:50.749Z,1.60
2023-05-20T04:53:19.093Z,1.57
2023-05-20T04:55:47.359Z,1.30
2023-05-20T04:58:17.311Z,1.70
2023-05-20T05:00:48.009Z,1.43
2023-05-20T05:03:16.527Z,1.40
2023-05-20T05:05:48.536Z,1.60
2023-05-20T05:08:17.304Z,1.70
2023-05-20T05:10:50.528Z,1.80
2023-05-20T05:13:19.220Z,1.30
2023-05-20T05:15:47.449Z,1.80
2023-05-20T05:18:19.413Z,1.60
2023-05-20T05:20:51.147Z,1.87
2023-05-20T05:23:19.327Z,1.80
2023-05-20T05:25:52.895Z,1.67
2023-05-20T05:28:23.714Z,2.00
2023-05-20T05:30:52.025Z,1.80
2023-05-20T05:33:22.468Z,1.63
2023-05-20T05:35:54.684Z,1.40
2023-05-20T05:38:22.909Z,1.60
2023-05-20T05:40:54.158Z,1.50
2023-05-20T05:43:25.434Z,1.80
2023-05-20T05:45:54.682Z,1.70
2023-05-20T05:48:23.779Z,1.80
2023-05-20T05:50:52.415Z,2.23
2023-05-20T05:53:23.708Z,1.90
2023-05-20T05:55:54.285Z,1.67
2023-05-20T05:58:22.938Z,1.60
2023-05-20T06:00:54.760Z,1.70
2023-05-20T06:03:23.262Z,1.83
2023-05-20T06:05:54.091Z,1.67
2023-05-20T06:08:23.849Z,2.27
2023-05-20T06:10:52.311Z,1.93
2023-05-20T06:13:21.418Z,1.63
2023-05-20T06:15:53.614Z,1.90
2023-05-20T06:18:26.738Z,2.20
2023-05-20T06:20:58.443Z,1.90
2023-05-20T06:23:31.281Z,1.90
2023-05-20T06:26:02.504Z,1.67
2023-05-20T06:28:31.643Z,1.80
2023-05-20T06:30:59.864Z,1.87
2023-05-20T06:33:31.485Z,2.13
2023-05-20T06:36:03.378Z,1.80
2023-05-20T06:38:33.572Z,2.03
2023-05-20T06:41:02.512Z,1.90
2023-05-20T06:43:34.467Z,1.60
2023-05-20T06:46:20.473Z,1.60
2023-05-20T06:49:03.241Z,2.50
2023-05-20T06:51:33.769Z,2.30
2023-05-20T06:54:04.120Z,1.97
2023-05-20T06:56:32.363Z,2.20
2023-05-20T06:59:00.962Z,2.20
2023-05-20T07:01:29.517Z,2.17
2023-05-20T07:03:57.878Z,1.90
2023-05-20T07:06:30.587Z,2.00
2023-05-20T07:09:03.196Z,1.80
2023-05-20T07:11:31.358Z,2.50
2023-05-20T07:14:02.691Z,2.10
2023-05-20T07:16:35.063Z,2.13
2023-05-20T07:19:03.685Z,1.90
2023-05-20T07:21:32.144Z,2.10
2023-05-20T07:24:16.101Z,2.37
2023-05-20T07:26:46.849Z,1.57
2023-05-20T07:29:15.165Z,1.67
2023-05-20T07:31:43.813Z,1.87
2023-05-20T07:34:12.047Z,2.30
2023-05-20T07:36:43.726Z,1.67
2023-05-20T07:39:14.422Z,1.77
2023-05-20T07:41:44.903Z,2.03
2023-05-20T07:44:14.490Z,1.40
2023-05-20T07:46:46.540Z,2.37
2023-05-20T07:49:15.456Z,1.60
2023-05-20T07:51:44.385Z,1.70
2023-05-20T07:54:13.672Z,1.73
2023-05-20T07:56:46.507Z,1.50
2023-05-20T07:59:14.963Z,1.50
2023-05-20T08:01:49.038Z,2.10
2023-05-20T08:04:20.588Z,2.13
2023-05-20T08:06:48.841Z,1.80
2023-05-20T08:09:24.003Z,1.93
2023-05-20T08:11:57.130Z,1.87
2023-05-20T08:14:25.583Z,2.07
2023-05-20T08:16:56.898Z,1.70
2023-05-20T08:19:25.237Z,1.80
2023-05-20T08:21:53.667Z,1.60
2023-05-20T08:24:22.037Z,1.80
2023-05-20T08:26:50.310Z,1.87
2023-05-20T08:29:21.342Z,1.67
2023-05-20T08:31:49.553Z,1.50
2023-05-20T08:34:18.801Z,1.47
2023-05-20T08:36:49.660Z,1.60
2023-05-20T08:39:21.100Z,1.70
2023-05-20T08:41:52.081Z,1.87
2023-05-20T08:44:23.907Z,1.73
2023-05-20T08:46:53.597Z,1.90
2023-05-20T08:49:22.157Z,1.63
2023-05-20T08:51:50.461Z,1.50
2023-05-20T08:54:21.016Z,1.43
2023-05-20T08:56:54.112Z,1.57
2023-05-20T08:59:23.895Z,1.80
2023-05-20T09:01:55.047Z,1.30
2023-05-20T09:04:23.255Z,1.67
2023-05-20T09:06:52.485Z,1.50
2023-05-20T09:09:22.495Z,1.60
2023-05-20T09:11:50.739Z,1.53
2023-05-20T09:14:19.002Z,1.67
2023-05-20T09:16:49.358Z,1.50
2023-05-20T09:19:17.586Z,1.27
2023-05-20T09:21:48.427Z,1.90
2023-05-20T09:24:16.621Z,1.87
2023-05-20T09:26:47.548Z,2.20
2023-05-20T09:29:19.634Z,1.67
2023-05-20T09:31:49.334Z,1.93
2023-05-20T09:34:21.172Z,1.80
2023-05-20T09:36:51.969Z,1.50
2023-05-20T09:39:27.130Z,1.60
2023-05-20T09:42:07.062Z,1.80
2023-05-20T09:44:36.824Z,1.67
2023-05-20T09:47:23.390Z,1.60
2023-05-20T09:49:55.991Z,1.50
2023-05-20T09:52:35.533Z,1.57
2023-05-20T09:55:10.970Z,1.77
2023-05-20T09:57:40.899Z,1.80
2023-05-20T10:00:16.278Z,1.80
2023-05-20T10:02:51.324Z,1.57
2023-05-20T10:05:24.481Z,1.50
2023-05-20T10:08:35.045Z,1.60
2023-05-20T10:11:12.997Z,1.67
2023-05-20T10:13:57.846Z,1.57
2023-05-20T10:16:35.695Z,1.60
2023-05-20T10:19:13.331Z,1.50
2023-05-20T10:21:41.632Z,1.30
2023-05-20T10:24:10.682Z,1.50
2023-05-20T10:26:39.422Z,2.33
2023-05-20T10:29:17.258Z,3.30
2023-05-20T10:31:51.490Z,1.40
2023-05-20T10:34:24.433Z,1.63
2023-05-20T10:37:01.871Z,1.70
2023-05-20T10:39:34.180Z,1.20
2023-05-20T10:42:09.553Z,1.90
2023-05-20T10:44:44.801Z,1.63
2023-05-20T10:49:48.561Z,1.33
2023-05-20T10:52:18.956Z,1.20
2023-05-20T10:54:50.146Z,1.20
2023-05-20T10:57:23.429Z,1.40
2023-05-20T10:59:52.393Z,1.20
2023-05-20T11:02:26.815Z,1.53
2023-05-20T11:04:58.282Z,1.40
2023-05-20T11:07:28.967Z,1.20
2023-05-20T11:09:57.371Z,1.37
2023-05-20T11:12:29.267Z,1.10
2023-05-20T11:14:59.776Z,1.20
2023-05-20T11:17:31.140Z,1.30
2023-05-20T11:20:01.462Z,2.00
2023-05-20T11:22:29.704Z,1.80
2023-05-20T11:24:57.984Z,2.60
2023-05-20T11:27:29.577Z,1.60
2023-05-20T11:30:00.885Z,1.30
2023-05-20T11:32:29.522Z,1.10
2023-05-20T11:35:01.691Z,1.30
2023-05-20T11:37:30.711Z,1.20
2023-05-20T11:40:08.246Z,1.43
2023-05-20T11:42:38.799Z,1.03
2023-05-20T11:45:08.078Z,1.50
2023-05-20T11:47:36.282Z,1.40
2023-05-20T11:50:11.465Z,1.33
2023-05-20T11:52:39.622Z,1.10
2023-05-20T11:55:12.264Z,0.90
2023-05-20T11:57:42.691Z,1.63
2023-05-20T12:00:14.080Z,1.00
2023-05-20T12:02:42.415Z,1.20
2023-05-20T12:05:14.745Z,1.20
2023-05-20T12:07:42.954Z,1.40
2023-05-20T12:10:15.017Z,1.07
2023-05-20T12:12:44.035Z,1.20
2023-05-20T12:15:14.542Z,0.93
2023-05-20T12:17:48.569Z,1.40
2023-05-20T12:20:19.585Z,1.10
2023-05-20T12:22:48.067Z,1.20
2023-05-20T12:25:19.182Z,1.00
2023-05-20T12:27:50.854Z,1.77
2023-05-20T12:30:20.561Z,1.57
2023-05-20T12:32:49.907Z,1.37
2023-05-20T12:35:25.663Z,1.37
2023-05-20T12:37:54.283Z,1.30
2023-05-20T12:40:22.632Z,1.37
2023-05-20T12:42:51.318Z,1.50
2023-05-20T12:45:19.693Z,1.30
2023-05-20T12:47:48.800Z,1.23
2023-05-20T12:50:20.885Z,1.10
2023-05-20T12:52:49.176Z,1.50
2023-05-20T12:55:17.489Z,1.40
2023-05-20T12:57:49.117Z,1.10
2023-05-20T13:00:19.716Z,1.27
2023-05-20T13:02:48.231Z,1.30
2023-05-20T13:05:21.644Z,0.87
2023-05-20T13:07:50.074Z,1.00
2023-05-20T13:10:18.367Z,1.00
2023-05-20T13:12:46.942Z,1.30
2023-05-20T13:15:15.616Z,1.43
2023-05-20T13:17:49.988Z,1.37
2023-05-20T13:20:23.197Z,1.13
2023-05-20T13:22:53.926Z,1.37
2023-05-20T13:25:22.114Z,1.50
2023-05-20T13:27:50.314Z,1.77
2023-05-20T13:30:18.636Z,1.10
2023-05-20T13:32:47.297Z,1.10
2023-05-20T13:35:16.879Z,1.07
2023-05-20T13:37:46.597Z,1.13
2023-05-20T13:40:15.239Z,1.17
2023-05-20T13:42:46.817Z,1.50
2023-05-20T13:45:18.604Z,1.67
2023-05-20T13:47:47.593Z,1.10
2023-05-20T13:50:19.589Z,1.27
2023-05-20T13:52:51.693Z,1.50
2023-05-20T13:55:24.619Z,1.23
2023-05-20T13:57:54.368Z,1.63
2023-05-20T14:00:25.007Z,1.40
2023-05-20T14:02:53.823Z,1.70
2023-05-20T14:05:24.477Z,1.03
2023-05-20T14:07:57.013Z,8.20
2023-05-20T14:10:25.249Z,3.60
2023-05-20T14:12:54.293Z,2.77
2023-05-20T14:15:24.742Z,7.33
2023-05-20T14:17:55.551Z,1.60
2023-05-20T14:20:23.923Z,1.23
2023-05-20T14:22:52.759Z,1.43
2023-05-20T14:25:28.214Z,1.30
2023-05-20T14:27:56.675Z,1.67
2023-05-20T14:30:25.095Z,1.37
2023-05-20T14:32:53.537Z,1.40
2023-05-20T14:35:24.814Z,1.70
2023-05-20T14:37:55.373Z,1.30
2023-05-20T14:40:25.067Z,1.10
2023-05-20T14:42:55.547Z,1.10
2023-05-20T14:45:24.296Z,1.77
2023-05-20T14:47:54.693Z,1.70
2023-05-20T14:50:23.631Z,1.33
2023-05-20T14:52:55.108Z,1.90
2023-05-20T14:55:23.315Z,2.27
2023-05-20T14:57:52.982Z,1.30
2023-05-20T15:00:21.307Z,1.77
2023-05-20T15:02:49.556Z,1.63
2023-05-20T15:05:20.189Z,1.97
2023-05-20T15:07:48.420Z,1.47
2023-05-20T15:10:16.658Z,1.40
2023-05-20T15:12:44.880Z,1.27
2023-05-20T15:15:14.642Z,1.30
2023-05-20T15:17:42.901Z,1.40
2023-05-20T15:20:12.026Z,1.63
2023-05-20T15:22:41.589Z,1.73
2023-05-20T15:25:10.013Z,1.40
2023-05-20T15:27:42.116Z,1.30
2023-05-20T15:30:15.629Z,1.37
2023-05-20T15:32:43.882Z,1.23
2023-05-20T15:35:12.209Z,1.30
2023-05-20T15:37:40.624Z,1.80
2023-05-20T15:40:12.687Z,1.50
2023-05-20T15:42:40.950Z,1.60
2023-05-20T15:45:10.581Z,2.33
2023-05-20T15:47:40.820Z,2.00
2023-05-20T15:50:12.269Z,2.20
2023-05-20T15:52:40.660Z,2.70
2023-05-20T15:55:10.882Z,2.67
2023-05-20T15:57:39.092Z,3.07
2023-05-20T16:00:10.354Z,2.40
2023-05-20T16:02:41.400Z,1.63
2023-05-20T16:05:09.888Z,1.67
2023-05-20T16:07:38.232Z,1.53
2023-05-20T16:10:10.838Z,1.93
2023-05-20T16:12:39.084Z,1.73
2023-05-20T16:15:09.922Z,1.60
2023-05-20T16:17:41.025Z,1.40
2023-05-20T16:20:10.214Z,1.40
2023-05-20T16:22:38.449Z,1.50
2023-05-20T16:25:07.143Z,1.33
2023-05-20T16:27:37.826Z,1.40
2023-05-20T16:30:09.028Z,1.30
2023-05-20T16:32:37.232Z,1.57
2023-05-20T16:35:08.049Z,1.30
2023-05-20T16:37:39.411Z,3.10
2023-05-20T16:40:09.504Z,1.53
2023-05-20T16:42:38.486Z,1.60
2023-05-20T16:45:07.737Z,1.90
2023-05-20T16:47:36.920Z,1.60
2023-05-20T16:50:11.330Z,4.33
2023-05-20T16:52:39.587Z,2.00
2023-05-20T16:55:08.522Z,1.67
2023-05-20T16:57:36.824Z,1.40
2023-05-20T17:00:09.577Z,1.80
2023-05-20T17:02:37.960Z,1.67
2023-05-20T17:05:07.026Z,1.50
2023-05-20T17:07:37.023Z,1.60
2023-05-20T17:10:05.876Z,1.63
2023-05-20T17:12:34.076Z,1.67
2023-05-20T17:15:02.237Z,1.47
2023-05-20T17:17:30.523Z,1.53
2023-05-20T17:19:58.714Z,1.80
2023-05-20T17:22:30.000Z,1.60
2023-05-20T17:24:59.630Z,1.63
2023-05-20T17:27:27.891Z,2.00
2023-05-20T17:29:56.212Z,1.93
2023-05-20T17:32:26.888Z,1.70
2023-05-20T17:34:57.248Z,1.60
2023-05-20T17:37:26.089Z,2.30
2023-05-20T17:39:54.282Z,1.67
2023-05-20T17:42:23.847Z,1.80
2023-05-20T17:44:52.004Z,1.90
2023-05-20T17:47:22.396Z,2.00
2023-05-20T17:49:50.693Z,2.33
2023-05-20T17:52:18.844Z,2.37
2023-05-20T17:54:47.063Z,2.20
2023-05-20T17:57:15.249Z,2.00
2023-05-20T17:59:47.798Z,2.43
2023-05-20T18:02:16.065Z,2.30
2023-05-20T18:04:44.396Z,2.30
2023-05-20T18:07:13.482Z,2.50
2023-05-20T18:09:41.846Z,2.80
2023-05-20T18:12:10.213Z,3.07
2023-05-20T18:14:38.369Z,2.83
2023-05-20T18:17:08.017Z,2.87
2023-05-20T18:19:36.168Z,2.90
2023-05-20T18:22:07.314Z,3.23
2023-05-20T18:24:35.606Z,2.70
2023-05-20T18:27:03.854Z,3.03
2023-05-20T18:29:32.216Z,2.83
2023-05-20T18:32:00.679Z,3.37
2023-05-20T18:34:33.221Z,3.43
2023-05-20T18:37:03.937Z,3.03
2023-05-20T18:39:32.144Z,2.93
2023-05-20T18:42:00.630Z,3.37
2023-05-20T18:44:29.080Z,3.17
2023-05-20T18:46:59.386Z,3.10
2023-05-20T18:49:29.044Z,3.70
2023-05-20T18:51:57.314Z,2.90
2023-05-20T18:54:27.924Z,3.60
2023-05-20T18:56:56.675Z,3.30
2023-05-20T18:59:25.262Z,3.07
2023-05-20T19:01:56.446Z,2.87
2023-05-20T19:04:25.115Z,3.00
2023-05-20T19:06:54.929Z,3.37
2023-05-20T19:09:23.337Z,3.30
2023-05-20T19:11:58.773Z,3.27
2023-05-20T19:14:27.018Z,4.20
2023-05-20T19:17:00.085Z,3.73
2023-05-20T19:19:28.504Z,3.77
2023-05-20T19:22:00.762Z,3.53
2023-05-20T19:24:31.921Z,3.20
2023-05-20T19:27:00.879Z,3.73
2023-05-20T19:29:32.155Z,3.30
2023-05-20T19:32:00.568Z,3.20
2023-05-20T19:34:31.805Z,3.33
2023-05-20T19:37:01.461Z,3.40
2023-05-20T19:39:30.183Z,3.50
2023-05-20T19:42:00.614Z,3.40
2023-05-20T19:44:28.944Z,3.13
2023-05-20T19:46:57.537Z,3.77
2023-05-20T19:49:25.859Z,3.30
2023-05-20T19:51:54.111Z,3.40
2023-05-20T19:54:23.707Z,3.50
2023-05-20T19:56:51.956Z,3.50
2023-05-20T19:59:20.109Z,3.33
2023-05-20T20:01:48.485Z,3.53
2023-05-20T20:04:18.428Z,3.97
2023-05-20T20:06:50.394Z,3.30
2023-05-20T20:09:18.713Z,2.90
2023-05-20T20:11:48.266Z,3.60
2023-05-20T20:14:18.352Z,3.10
2023-05-20T20:16:49.551Z,3.60
2023-05-20T20:19:23.149Z,3.43
2023-05-20T20:21:56.476Z,3.17
2023-05-20T20:24:25.176Z,3.40
2023-05-20T20:26:58.244Z,3.30
2023-05-20T20:29:28.752Z,3.03
2023-05-20T20:32:00.195Z,3.20
2023-05-20T20:34:28.449Z,3.57
2023-05-20T20:36:57.086Z,2.63
2023-05-20T20:39:25.302Z,3.03
2023-05-20T20:41:54.567Z,3.50
2023-05-20T20:44:29.052Z,3.27
2023-05-20T20:46:58.302Z,3.30
2023-05-20T20:49:28.404Z,3.30
2023-05-20T20:51:56.940Z,2.70
2023-05-20T20:54:25.078Z,3.50
2023-05-20T20:56:56.772Z,3.53
2023-05-20T20:59:26.942Z,2.60
2023-05-20T21:01:55.403Z,3.00
2023-05-20T21:04:27.844Z,3.50
2023-05-20T21:06:56.198Z,3.27
2023-05-20T21:09:24.368Z,3.50
2023-05-20T21:11:57.125Z,3.20
2023-05-20T21:14:29.232Z,3.40
2023-05-20T21:16:57.444Z,3.80
2023-05-20T21:19:25.833Z,3.27
2023-05-20T21:21:54.175Z,2.80
2023-05-20T21:24:22.378Z,3.83
2023-05-20T21:26:50.663Z,3.67
2023-05-20T21:29:18.903Z,3.53
2023-05-20T21:31:48.544Z,3.13
2023-05-20T21:34:16.895Z,3.43
2023-05-20T21:36:47.304Z,3.50
2023-05-20T21:39:15.615Z,3.30
2023-05-20T21:41:43.909Z,3.17
2023-05-20T21:44:12.173Z,2.83
2023-05-20T21:46:40.480Z,3.03
2023-05-20T21:49:12.579Z,3.07
2023-05-20T21:51:40.801Z,3.03
2023-05-20T21:54:08.991Z,3.27
2023-05-20T21:56:40.194Z,2.87
2023-05-20T21:59:08.393Z,3.33
2023-05-20T22:01:36.584Z,3.03
2023-05-20T22:04:05.208Z,3.17
2023-05-20T22:06:37.079Z,3.10
2023-05-20T22:09:07.575Z,2.97
2023-05-20T22:11:37.719Z,2.87
2023-05-20T22:14:05.970Z,2.77
2023-05-20T22:16:34.202Z,2.77
2023-05-20T22:19:02.542Z,2.87
2023-05-20T22:21:39.667Z,3.10
2023-05-20T22:24:16.070Z,3.10
2023-05-20T22:26:46.634Z,3.20
2023-05-20T22:29:15.302Z,2.93
2023-05-20T22:31:43.511Z,3.47
2023-05-20T22:34:11.729Z,3.03
2023-05-20T22:36:39.936Z,3.00
2023-05-20T22:39:12.694Z,3.20
2023-05-20T22:41:44.713Z,3.03
2023-05-20T22:44:12.922Z,3.27
2023-05-20T22:46:41.175Z,2.97
2023-05-20T22:49:10.303Z,3.47
2023-05-20T22:51:38.662Z,3.43
2023-05-20T22:54:07.801Z,3.00
2023-05-20T22:56:38.585Z,2.73
2023-05-20T22:59:08.143Z,2.90
2023-05-20T23:01:36.513Z,2.90
2023-05-20T23:04:04.941Z,3.00
2023-05-20T23:06:33.154Z,3.23
2023-05-20T23:09:01.318Z,3.17
2023-05-20T23:11:29.537Z,2.90
2023-05-20T23:13:57.726Z,3.23
2023-05-20T23:16:30.423Z,3.00
2023-05-20T23:18:59.255Z,2.80
2023-05-20T23:21:27.464Z,2.83
2023-05-20T23:23:58.213Z,3.13
2023-05-20T23:26:28.884Z,2.97
2023-05-20T23:28:59.465Z,2.93
2023-05-20T23:31:29.811Z,2.90
2023-05-20T23:36:28.976Z,3.30
2023-05-20T23:38:57.305Z,2.90
2023-05-20T23:41:25.919Z,3.30
2023-05-20T23:43:54.104Z,3.30
2023-05-20T23:46:24.618Z,3.20
2023-05-20T23:48:53.768Z,3.27
2023-05-20T23:51:23.354Z,3.10
2023-05-20T23:53:51.734Z,3.00
2023-05-20T23:56:19.941Z,3.40
2023-05-20T23:58:48.282Z,3.10
